Main page
METAR-TAF:

METAR-TAF

Airports :

Dole–Jura Airport

Dole, France

latitude: 47-02-34N, longitude: 005-26-06E, elevation: 196 m

Current weather observation

The report was made 29 minutes ago, at 17:00 UTC
Wind 4 kt from the West
Temperature 28°C
Humidity 40%
Pressure 1016 hPa
Visibility 10 km or more
no clouds below 1500 m and no cumulonimbus

METAR: LFGJ 201700Z AUTO 26004KT CAVOK 28/13 Q1016 NOSIG

Time: 19:29 (17:29 UTC)

Forecast

The report was made 3 hours and 29 minutes ago, at 14:00 UTC
Forecast valid from 20 at 15 UTC to 20 at 24 UTC
Wind 4 kt from the West/Southwest
Visibility 10 km or more
no clouds below 1500 m and no cumulonimbus

TAF: LFGJ 201400Z 2015/2024 25004KT CAVOK

Weather observations and forecasts of more than 4000 airports (METAR and TAF reports).

The available stations are represented by yellow and red dots on the map.

Hover mouse over dot to see the name of the station.

Then click to see weather observations and forecasts.

To change the map : click on the green buttons with a black cross to zoom in, on the green button with a dash to zoom out, or on the green arrows for adjacent maps.


METAR-TAF: